Home > Products > Valid Products > MTR

000
SAZS31 NSTU 241159
MTRPPG
METAR NSTU 241155Z 16006KT 10SM FEW023 28/23 A2982 RMK SLP100 8/100
T02760231 10300 20250 58010=




000
SAZS31 NSTU 241052
MTRPPG
METAR NSTU 241050Z 00000KT 10SM FEW023 25/23 A2984 RMK SLP107
T02540231 403010242=




000
SAZS31 NSTU 240954
MTRPPG
METAR NSTU 240954Z 30003KT 10SM FEW023 25/23 A2984 RMK SLP107
T02540230=




000
SAZS31 NSTU 240859
MTRPPG
METAR NSTU 240856Z 16005KT 10SM FEW023 28/23 A2986 RMK SLP110 8/100
T02760228 53020=




000
SAZS31 NSTU 240753
MTRPPG
METAR NSTU 240753Z 15007KT 10SM FEW023 28/23 A2985 RMK SLP108
T02770229=




000
SAZS31 NSTU 240658
MTRPPG
METAR NSTU 240652Z 15007KT 10SM FEW023 30/23 A2983 RMK SLP102
T02990232=




000
SAZS31 NSTU 240554
MTRPPG
METAR NSTU 240550Z 16006KT 10SM FEW023 28/22 A2979 RMK SLP090 8/100
T02800224 10301 20280 53012=




000
SAZS31 NSTU 240536
MTRPPG
METAR NSTU 240452Z 15004KT 10SM SKC 28/24 A2979 RMK SLP088 T02810236=




000
SAZS31 NSTU 240350
MTRPPG
METAR NSTU 240350Z 14003KT 12SM SKC 29/23 A2977 RMK SLP081 T02890230=




000
SAZS31 NSTU 240151
MTRPPG
METAR NSTU 240151Z 11004KT 12SM FEW030 30/24 A2976 RMK SLP080
T03010244=




000
SAZS31 NSTU 240050
MTRPPG
METAR NSTU 240050Z 09004KT 12SM FEW030 30/24 A2978 RMK SLP086
T03010239=




000
SAZS31 NSTU 232348
MTRPPG
METAR NSTU 232350Z 12005KT 12SM FEW030 30/24 A2981 RMK SLP095 8/100
T03000235 10301 20242 57019=




000
SAZS31 NSTU 232250
MTRPPG
METAR NSTU 232251Z 10004KT 12SM FEW030 30/24 A2983 RMK SLP102
T03010243=




000
SAZS31 NSTU 232149
MTRPPG
METAR NSTU 232150Z 13005KT 12SM FEW030 30/24 A2985 RMK SLP110
T02980238=




000
SAZS31 NSTU 232049
MTRPPG
METAR NSTU 232050Z 10004KT 12SM FEW030 30/24 A2986 RMK SLP113 8/100
T02960237 52012=




000
SAZS31 NSTU 231952
MTRPPG
METAR NSTU 231952Z 11003KT 12SM FEW030 29/24 A2985 RMK SLP110
T02900243=




000
SAZS31 NSTU 231852
MTRPPG
METAR NSTU 231850Z 00000KT 12SM FEW200 28/23 A2983 RMK SLP103
T02770234=




000
SAZS31 NSTU 231753
MTRPPG
METAR NSTU 231752Z 32003KT 10SM FEW021 SCT100 24/23 A2983 RMK SLP102
8/170 T02420225 10273 20242 52008=




000
SAZS31 NSTU 231650
MTRPPG
METAR NSTU 231651Z 30003KT 10SM FEW021 BKN100 25/23 A2982 RMK SLP098
T02460229=




000
SAZS31 NSTU 231603
MTRPPG
METAR NSTU 231555Z 33003KT 10SM SCT021 BKN100 25/23 A2980 RMK SLP093
T02500231=




000
SAZS31 NSTU 231455
MTRPPG
METAR NSTU 231456Z 30003KT 10SM SCT023 BKN100 26/23 A2980 RMK SLP093
8/170 T02550233 57007=




000
SAZS31 NSTU 231354
MTRPPG
METAR NSTU 231353Z 13004KT 10SM SCT023 BKN100 27/23 A2981 RMK SLP095
T02680234=




000
SAZS31 NSTU 231248
MTRPPG
METAR NSTU 231250Z 13005KT 10SM SCT023 BKN100 27/23 A2982 RMK SLP098
T02720228=




000
SAZS31 NSTU 231157
MTRPPG
METAR NSTU 231155Z 14008KT 10SM SCT023 BKN100 OVC200 27/23 A2982 RMK
SLP100 8/178 T02730232 10273 20250 57015=




000
SAZS31 NSTU 231059
MTRPPG
METAR NSTU 230952Z 12004KT 10SM SCT023 BKN100 25/23 A2985 RMK SLP110
T02530229=




000
SAZS31 NSTU 231006
MTRPPG
METAR NSTU 230952Z 12004KT 10SM SCT023 BKN100 25/23 A2985 RMK SLP110
T02530229=




000
SAZS31 NSTU 230856
MTRPPG
METAR NSTU 230850Z 30003KT 10SM SCT023 BKN100 OVC200 25/23 A2987 RMK
SLP115 8/178 T02500228 52014=




000
SAZS31 NSTU 230754
MTRPPG
METAR NSTU 230752Z 32003KT 10SM SCT023 BKN100 OVC200 25/23 A2986 RMK
SLP112 T02510228=





000
SAZS31 NSTU 230652
MTRPPG
METAR NSTU 230650Z 30003KT 10SM SCT023 BKN100 OVC200 26/23 A2985 RMK
SLP108 T02560230=




000
SAZS31 NSTU 230601
MTRPPG
METAR NSTU 230550Z 00000KT 12SM SCT023 BKN100 OVC200 26/23 A2983 RMK
SLP102 8/178 T02610228 10295 20261 53008=




000
SAZS31 NSTU 230449
MTRPPG
METAR NSTU 230450Z 00000KT 12SM SCT023 BKN100 BKN200 28/23 A2981 RMK
SLP097 T02780231=




000
SAZS31 NSTU 230348
MTRPPG
METAR NSTU 230350Z 14003KT 12SM SCT023 BKN100 BKN200 28/23 A2980 RMK
SLP093 T02820225=




000
SAZS31 NSTU 230252
MTRPPG
METAR NSTU 230250Z 17005KT 12SM SCT023TCU SCT050 BKN100 OVC200 28/23
A2980 RMK TCU NW-NE SLP093 8/458 T02840227 57014==




000
SAZS31 NSTU 230150
MTRPPG
METAR NSTU 230151Z 17003KT 12SM FEW025 BKN110 OVC200 29/23 A2981 RMK
SLP097 T02860225=




000
SAZS31 NSTU 230050
MTRPPG
METAR NSTU 230050Z 16004KT 12SM FEW025 BKN110 BKN200 29/23 A2983 RMK
SLP102 T02930229=




000
SAZS31 NSTU 222351
MTRPPG
METAR NSTU 222350Z 13005KT 12SM FEW025 BKN110 BKN200 30/23 A2984 RMK
SLP107 8/156 T02950230 10295 20234 57015=




000
SAZS31 NSTU 222258
MTRPPG
METAR NSTU 222258Z 13004KT 12SM FEW025 BKN110 BKN200 29/23 A2987 RMK
SLP115 T02910228=




000
SAZS31 NSTU 222156
MTRPPG
METAR NSTU 222152Z 12004KT 12SM FEW025 SCT110 BKN250 29/23 A2988 RMK
SLP120 T02940232=





000
SAZS31 NSTU 222055
MTRPPG
METAR NSTU 222055Z 13005KT 12SM FEW023 SCT110 BKN250 29/23 A2989 RMK
SLP122 8/111 T02880229 52010=




000
SAZS31 NSTU 221952
MTRPPG
METAR NSTU 221952Z 13004KT 12SM FEW023 SCT110 BKN250 29/23 A2989 RMK
SLP122 T02860226=




000
SAZS31 NSTU 221903
MTRPPG
METAR NSTU 221859Z 00000KT 12SM FEW023 SCT120 BKN250 27/23 A2987 RMK
SLP117 T02720231=




000
SAZS31 NSTU 221755
MTRPPG
METAR NSTU 221754Z 30003KT 12SM FEW023 SCT120 BKN250 23/22 A2986 RMK
SLP112 8/171 T02340219 10269 20231 52010=




000
SAZS31 NSTU 221651
MTRPPG
METAR NSTU 221652Z 30003KT 10SM FEW050 23/22 A2983 RMK SLP103
T02310215=




000
SAZS31 NSTU 221600
MTRPPG
METAR NSTU 221555Z 32003KT 10SM SKC 23/21 A2982 RMK SLP100 T02330214=




000
SAZS31 NSTU 221450
MTRPPG
METAR NSTU 221450Z 30003KT 10SM SKC 24/21 A2983 RMK SLP102 T02350214
56003=




000
SAZS31 NSTU 221350
MTRPPG
METAR NSTU 221351Z 00000KT 10SM SKC 24/22 A2982 RMK SLP098 T02430217=




000
SAZS31 NSTU 221258
MTRPPG
METAR NSTU 221252Z 12006KT 10SM SKC 27/22 A2983 RMK SLP100 T02660218=




000
SAZS31 NSTU 221207
MTRPPG
METAR NSTU 221153Z 11006KT 10SM FEW022 27/22 A2984 RMK SLP105 8/100
T02690221 10277 20269 57019=




000
SAZS31 NSTU 221206
MTRPPG
METAR NSTU 221055Z 10008KT 10SM FEW022 27/22 A2987 RMK SLP115
T02720223 403040272=




000
SAZS31 NSTU 220957
MTRPPG
METAR NSTU 220957Z 09008KT 10SM SCT022 27/22 A2989 RMK SLP122
T02730224=




000
SAZS31 NSTU 220857
MTRPPG
METAR NSTU 220855Z 11008KT 11SM SKC 28/22 A2989 RMK SLP124 T02750221
51015=






000
SAZS31 NSTU 220757
MTRPPG
METAR NSTU 220756Z 11008KT 11SM SKC 28/22 A2988 RMK SLP120 T02750219=






000
SAZS31 NSTU 220656
MTRPPG
METAR NSTU 220653Z 11008KT 11SM SKC 28/22 A2986 RMK SLP113 T02750220=





000
SAZS31 NSTU 220557
MTRPPG
METAR NSTU 220551Z 12008KT 12SM SKC 28/22 A2985 RMK SLP108 T02770220
10304 20277 52007=




000
SAZS31 NSTU 220452
MTRPPG
METAR NSTU 220450Z 10007KT 12SM SKC 28/22 A2984 RMK SLP107 T02810219=




000
SAZS31 NSTU 220353
MTRPPG
METAR NSTU 220353Z 12006KT 12SM SKC 29/22 A2983 RMK SLP102 T02910223=




000
SAZS31 NSTU 220251
MTRPPG
METAR NSTU 220251Z 10008KT 12SM SKC 30/23 A2983 RMK SLP102 T02980230
57017=




000
SAZS31 NSTU 220151
MTRPPG
METAR NSTU 220150Z 12008KT 12SM SKC 30/23 A2983 RMK SLP103 T03010228=




000
SAZS31 NSTU 220058
MTRPPG
METAR NSTU 220051Z 11006KT 12SM SKC 30/22 A2986 RMK SLP112 T03010223=




000
SMZS01 NSTU 220001
MTRPPG
AAXX 22004
91765 32969 01007 10304 20231 30115 40119 57017 333 20275 58006 555
92200=




000
SAZS31 NSTU 220000
MTRPPG
METAR NSTU 212353Z 10007KT 12SM SKC 30/23 A2988 RMK SLP119 T03040231
10304 20275 57017=




000
SAZS31 NSTU 212251
MTRPPG
METAR NSTU 212250Z 11007KT 12SM FEW024 30/23 A2990 RMK SLP125
T03020226=




000
SAZS31 NSTU 212155
MTRPPG
METAR NSTU 212150Z 11009KT 12SM FEW024 30/23 A2992 RMK SLP132
T03020229=





000
SAZS31 NSTU 212057
MTRPPG
METAR NSTU 212052Z 11009KT 12SM FEW023 30/23 A2993 RMK SLP135 8/100
T02960225 52014=




000
SAZS31 NSTU 212016
MTRPPG
METAR NSTU 211958Z 11009KT 12SM SCT023 SCT055 29/23 A2992 RMK SLP134
T02940225=





000
SAZS31 NSTU 211902
MTRPPG
METAR NSTU 211852Z 12010KT 12SM SCT023 BKN055 29/23 A2991 RMK SLP129
T02870229=




000
SAZS31 NSTU 211800
MTRPPG
METAR NSTU 211754Z 11011KT 10SM SCT023 BKN055 28/22 A2989 RMK SLP122
8/800 T02750222 10281 20275 52010=




000
SAZS31 NSTU 211656
MTRPPG
METAR NSTU 211655Z 11013KT 10SM SCT020 SCT040 BKN100 28/23 A2987 RMK
SLP117 T02750226=




000
SAZS31 NSTU 211555
MTRPPG
METAR NSTU 211555Z 11011KT 10SM SCT020 BKN040 OVC090 28/23 A2987 RMK
SLP115 T02790229=




000
SAZS31 NSTU 211510
MTRPPG
METAR NSTU 211453Z 11013KT 10SM SCT020 BKN040 OVC090 28/23 A2986 RMK
SLP112 8/82/ T02800231 56010=




000
SAZS31 NSTU 211405
MTRPPG
METAR NSTU 211356Z 11012KT 10SM SCT019 BKN040 OVC100 28/23 A2986 RMK
SLP112 T02800230=




000
SAZS31 NSTU 211403
MTRPPG
METAR NSTU 211253Z 10012KT 10SM SCT019 BKN040 OVC100 28/23 A2986 RMK
SLP113 T02790234=




    US Dept of Commerce
    National Oceanic and Atmospheric Administration
    National Weather Service
    1325 East West Highway
    Silver Spring, MD 20910
    Page Author: NWS Internet Services Team
Disclaimer
Information Quality
Credits
Glossary
Privacy Policy
Freedom of Information Act (FOIA)
About Us
Career Opportunities